If you wish to contribute or participate in the discussions about articles you are invited to join SKYbrary as a registered user

 Actions

Pärnu

From SKYbrary Wiki

EEPU
Airport
ICAO: EEPU
Summary
Name Pärnu
Region Europe
Territory Estonia EE.gif
Location Pärnu
Serving
Coordinates 58° 25' 20.21" N, 24° 27' 56.92" E
Runways
Designator Length Width Surface ROPS
3/21 2480 m8,136.483 ft
45 m147.638 ft
CON /


METAR
Observation EEPU 110950Z 02008KT 330V050 9999 BKN041 03/M07 Q1024
Station Parnu
Date/Time 11 April 2019 09:50:00
Wind direction 20°
Wind speed 08 kts
Lowest cloud amount broken clouds
Temperature 3°C
Dew point
Humidity 47%
QNH 1024 hPa
Weather condition n/a

Pärnu Airport (IATA: EPU, ICAO: EEPU) is an airport in Estonia. The airport is situated 4 km2.16 nm
4,000 m
13,123.36 ft
from the city of Pärnu.